»·PEaware :: FXI3172 KLIC-KGJT

FXI3172 :: KLIC-KGJT

FLIGHT INFORMATION

Flight Status: Arrived
Operator:
Flugfelag Islands
More flights by this operator :: More flights under this callsign
Pilot: Alan J. (5709)
Aircraft: SAAB 340
(SF34)
More flights by this aircraft type
Origin: KLIC Limon Mun
United States
Destination: KGJT Walker
United States
More flights between these airports :: More routes between these airports
Route: FQF J80 JNC
File this flight plan on PilotEdge
Remarks: Air Iceland Connect - CALLSIGN - FAXI
Altitude:
(Current/Filed)
24,000ft
Speed:
(Current/Filed)
280kts
Departed: 01-Oct-17 07:57 PM
Arrived: 01-Oct-17 09:24 PM
Distance/Time
Traveled:
226nm/1:27
Distance/Time
To Go:
Arrived

Flight Plot

Page will automatically refresh every two minutes.

Flight plan parsing failed; only flown route is shown


Map Options




Map Legend


Flown Route
Filed Route
Departure Airport
Arrival Airport
Navaid (VOR, NDB)
Fix

Horizontal Profiles

Position Reports

Time Latitude Longitude Heading Altitude Ground
Speed
01-Oct-17 19:49 39.268418 -103.665161 77 5353ft 0kts
01-Oct-17 19:50 39.268418 -103.665161 77 5353ft 0kts
01-Oct-17 19:51 39.268418 -103.665161 77 5353ft 0kts
01-Oct-17 19:52 39.268418 -103.665161 77 5353ft 0kts
01-Oct-17 19:53 39.268418 -103.665161 77 5353ft 0kts
01-Oct-17 19:54 39.268418 -103.665161 77 5353ft 0kts
01-Oct-17 19:55 39.268418 -103.665161 77 5353ft 0kts
01-Oct-17 19:56 39.268418 -103.665161 77 5353ft 0kts
01-Oct-17 19:57 39.268418 -103.665161 77 5353ft 0kts
01-Oct-17 19:58 39.268421 -103.665144 77 5353ft 0kts
01-Oct-17 19:59 39.268733 -103.664442 348 5352ft 0kts
01-Oct-17 20:00 39.269242 -103.664582 350 5353ft 0kts
01-Oct-17 20:01 39.282445 -103.667255 356 5440ft 123kts
01-Oct-17 20:02 39.318695 -103.672305 303 6834ft 146kts
01-Oct-17 20:03 39.316176 -103.720973 260 8949ft 150kts
01-Oct-17 20:04 39.329125 -103.771987 303 11189ft 166kts
01-Oct-17 20:05 39.351850 -103.827951 291 12956ft 187kts
01-Oct-17 20:06 39.358719 -103.887669 289 14816ft 180kts
01-Oct-17 20:07 39.394991 -103.931899 311 16241ft 180kts
01-Oct-17 20:08 39.425680 -103.985603 291 17459ft 181kts
01-Oct-17 20:09 39.460252 -104.038817 293 18598ft 191kts
01-Oct-17 20:10 39.484836 -104.095756 289 19730ft 172kts
01-Oct-17 20:11 39.507902 -104.146548 288 20831ft 156kts
01-Oct-17 20:12 39.530598 -104.193543 289 21787ft 158kts
01-Oct-17 20:13 39.554713 -104.243815 289 22389ft 170kts
01-Oct-17 20:14 39.569781 -104.295590 259 23324ft 143kts
01-Oct-17 20:15 39.565889 -104.346455 279 23993ft 154kts
01-Oct-17 20:16 39.593331 -104.398987 289 24031ft 187kts
01-Oct-17 20:17 39.619680 -104.457425 288 24021ft 200kts
01-Oct-17 20:18 39.647318 -104.520905 288 24017ft 208kts
01-Oct-17 20:19 39.675892 -104.587337 289 23900ft 216kts
01-Oct-17 20:20 39.688664 -104.656183 255 23901ft 199kts
01-Oct-17 20:21 39.680338 -104.723545 259 23904ft 202kts
01-Oct-17 20:22 39.672883 -104.794979 259 23903ft 203kts
01-Oct-17 20:23 39.665588 -104.866200 259 23901ft 204kts
01-Oct-17 20:24 39.659579 -104.924206 260 23906ft 203kts
01-Oct-17 20:25 39.652162 -104.995705 261 23916ft 202kts
01-Oct-17 20:26 39.645291 -105.061827 263 23924ft 200kts
01-Oct-17 20:27 39.638862 -105.123329 264 23930ft 199kts
01-Oct-17 20:28 39.632407 -105.185735 264 23932ft 198kts
01-Oct-17 20:29 39.625419 -105.252032 264 23933ft 197kts
01-Oct-17 20:30 39.618504 -105.317314 264 23935ft 196kts
01-Oct-17 20:31 39.611528 -105.382829 264 23937ft 196kts
01-Oct-17 20:32 39.604412 -105.449178 264 23932ft 196kts
01-Oct-17 20:33 39.597154 -105.516541 264 23927ft 197kts
01-Oct-17 20:34 39.589559 -105.586466 264 23922ft 199kts
01-Oct-17 20:35 39.581869 -105.657021 264 23949ft 199kts
01-Oct-17 20:36 39.574129 -105.727651 264 23988ft 201kts
01-Oct-17 20:37 39.566218 -105.799435 264 24021ft 202kts
01-Oct-17 20:38 39.558233 -105.871394 263 24042ft 202kts
01-Oct-17 20:39 39.550181 -105.943511 264 24043ft 203kts
01-Oct-17 20:40 39.542067 -106.015820 264 24042ft 203kts
01-Oct-17 20:41 39.533923 -106.088009 264 24042ft 203kts
01-Oct-17 20:42 39.526248 -106.155569 264 24042ft 203kts
01-Oct-17 20:43 39.523225 -106.182111 264 24042ft 203kts
01-Oct-17 20:44 39.518730 -106.221457 264 24042ft 202kts
01-Oct-17 20:45 39.512053 -106.279609 264 24041ft 202kts
01-Oct-17 20:46 39.507005 -106.323419 264 24040ft 202kts
01-Oct-17 20:47 39.500165 -106.382478 264 24033ft 202kts
01-Oct-17 20:48 39.496503 -106.414150 264 24028ft 202kts
01-Oct-17 20:49 39.488184 -106.485613 264 24019ft 202kts
01-Oct-17 20:50 39.479896 -106.556328 264 24011ft 201kts
01-Oct-17 20:51 39.471638 -106.626512 264 24008ft 201kts
01-Oct-17 20:52 39.463451 -106.695628 263 24023ft 202kts
01-Oct-17 20:53 39.455220 -106.764828 263 24020ft 204kts
01-Oct-17 20:54 39.446900 -106.834102 264 24018ft 204kts
01-Oct-17 20:55 39.440113 -106.890131 265 24019ft 205kts
01-Oct-17 20:56 39.426947 -106.960655 263 24019ft 207kts
01-Oct-17 20:57 39.410939 -107.043960 264 24021ft 208kts
01-Oct-17 20:58 39.399575 -107.103394 264 24022ft 209kts
01-Oct-17 20:59 39.385646 -107.175628 264 24022ft 210kts
01-Oct-17 21:00 39.371563 -107.248254 264 24023ft 210kts
01-Oct-17 21:01 39.357364 -107.321212 264 24018ft 210kts
01-Oct-17 21:02 39.343075 -107.394336 264 24007ft 210kts
01-Oct-17 21:03 39.328775 -107.467297 264 23994ft 210kts
01-Oct-17 21:04 39.314348 -107.540586 264 23984ft 210kts
01-Oct-17 21:05 39.299962 -107.613337 264 23983ft 209kts
01-Oct-17 21:06 39.285881 -107.685318 262 24037ft 208kts
01-Oct-17 21:07 39.270327 -107.763110 261 22663ft 235kts
01-Oct-17 21:08 39.253617 -107.846802 261 21213ft 249kts
01-Oct-17 21:09 39.235899 -107.934791 260 19741ft 259kts
01-Oct-17 21:10 39.219154 -108.017397 260 18394ft 267kts
01-Oct-17 21:11 39.203405 -108.095346 260 17152ft 273kts
01-Oct-17 21:12 39.194635 -108.183839 279 15790ft 272kts
01-Oct-17 21:13 39.204119 -108.281463 280 14296ft 278kts
01-Oct-17 21:14 39.214548 -108.380635 280 12807ft 278kts
01-Oct-17 21:15 39.225630 -108.478986 280 11305ft 278kts
01-Oct-17 21:16 39.237682 -108.576357 291 9974ft 273kts
01-Oct-17 21:17 39.272709 -108.659932 301 9005ft 260kts
01-Oct-17 21:18 39.305817 -108.736581 300 8993ft 233kts
01-Oct-17 21:19 39.331405 -108.808771 266 8291ft 228kts
01-Oct-17 21:20 39.286021 -108.820747 129 7984ft 187kts
01-Oct-17 21:21 39.258902 -108.771759 117 7925ft 151kts
01-Oct-17 21:22 39.237993 -108.724611 96 7948ft 158kts
01-Oct-17 21:23 39.209415 -108.684560 109 7220ft 148kts
01-Oct-17 21:24 39.189264 -108.644746 122 6498ft 125kts
01-Oct-17 21:25 39.170806 -108.607603 118 5922ft 126kts
01-Oct-17 21:26 39.149416 -108.571047 120 5327ft 129kts
01-Oct-17 21:27 39.129482 -108.534243 122 4833ft 78kts
01-Oct-17 21:28 39.126765 -108.529911 171 4842ft 1kts
01-Oct-17 21:29 39.126135 -108.530119 218 4838ft 5kts
01-Oct-17 21:30 39.125781 -108.530091 126 4837ft 0kts
01-Oct-17 21:31 39.125015 -108.528661 125 4840ft 2kts
01-Oct-17 21:32 39.124054 -108.528177 222 4838ft 4kts
01-Oct-17 21:33 39.123944 -108.528325 226 4837ft 0kts
01-Oct-17 21:34 39.123254 -108.528980 213 4832ft 3kts
01-Oct-17 21:35 39.123230 -108.529001 213 4831ft 0kts
01-Oct-17 21:36 39.123230 -108.529001 213 4831ft 0kts
01-Oct-17 21:37 39.123230 -108.529001 213 4831ft 0kts
01-Oct-17 21:38 39.123230 -108.529001 213 4831ft 0kts
01-Oct-17 21:39 39.123230 -108.529001 213 4831ft 0kts

Navigation Log

Ident Type
Flight plan parsing failed, navigation log unavailable